»·PEaware :: TEXAN27 KRND-KRND

TEXAN27 :: KRND-KRND

FLIGHT INFORMATION

Flight Status: Arrived
Operator: Unknown
More flights by this operator :: More flights under this callsign
Pilot: Indie I. (23348)
Aircraft: BEECH AIRCRAFT T-6A TEXAN
(TEX2)
More flights by this aircraft type
Origin: KRND Randolph AFB
United States
Destination: KRND Randolph AFB
United States
More flights between these airports :: More routes between these airports
Route:
File this flight plan on PilotEdge
Remarks: vfr pattern
Altitude:
(Current/Filed)
1,800ft
Speed:
(Current/Filed)
200kts
Departed: 14-Aug-20 11:55 AM
Arrived: 14-Aug-20 12:50 PM
Distance/Time
Traveled:
0nm/0:55
Distance/Time
To Go:
Arrived

Flight Plot

Page will automatically refresh every two minutes.

Flight plan parsing failed; only flown route is shown


Map Options




Map Legend


Flown Route
Filed Route
Departure Airport
Arrival Airport
Navaid (VOR, NDB)
Fix

Horizontal Profiles

Position Reports

Time Latitude Longitude Heading Altitude Ground
Speed
14-Aug-20 11:29 29.534617 -98.292984 150 765ft 0kts
14-Aug-20 11:30 29.534615 -98.292703 54 765ft 17kts
14-Aug-20 11:31 29.534881 -98.291850 194 765ft 0kts
14-Aug-20 11:32 29.534879 -98.291850 194 765ft 0kts
14-Aug-20 11:33 29.534877 -98.291851 194 765ft 0kts
14-Aug-20 11:34 29.534874 -98.291851 194 765ft 0kts
14-Aug-20 11:35 29.534872 -98.291852 194 765ft 0kts
14-Aug-20 11:36 29.534871 -98.291853 194 765ft 0kts
14-Aug-20 11:40 29.534862 -98.291855 194 765ft 0kts
14-Aug-20 11:41 29.534860 -98.291856 194 765ft 0kts
14-Aug-20 11:42 29.534858 -98.291856 194 765ft 0kts
14-Aug-20 11:43 29.534856 -98.291857 194 765ft 0kts
14-Aug-20 11:44 29.534854 -98.291857 194 765ft 0kts
14-Aug-20 11:45 29.534852 -98.291858 194 765ft 0kts
14-Aug-20 11:46 29.534850 -98.291858 194 765ft 0kts
14-Aug-20 11:47 29.534848 -98.291859 194 765ft 0kts
14-Aug-20 11:48 29.534847 -98.291859 194 765ft 0kts
14-Aug-20 11:49 29.534844 -98.291860 194 765ft 0kts
14-Aug-20 11:50 29.534838 -98.291862 194 765ft 0kts
14-Aug-20 11:51 29.534602 -98.292060 245 765ft 0kts
14-Aug-20 11:52 29.534602 -98.292062 245 765ft 0kts
14-Aug-20 11:53 29.533763 -98.292388 154 765ft 0kts
14-Aug-20 11:54 29.509376 -98.276415 152 1717ft 179kts
14-Aug-20 11:55 29.508745 -98.315353 329 1880ft 204kts
14-Aug-20 11:56 29.557289 -98.343156 42 1917ft 196kts
14-Aug-20 11:57 29.540733 -98.297124 149 1785ft 206kts
14-Aug-20 11:58 29.530689 -98.309227 332 1431ft 128kts
14-Aug-20 11:59 29.531753 -98.291129 150 769ft 106kts
14-Aug-20 12:00 29.529157 -98.303784 331 1541ft 137kts
14-Aug-20 12:01 29.532454 -98.291598 150 770ft 101kts
14-Aug-20 12:02 29.500304 -98.279100 239 1894ft 154kts
14-Aug-20 12:03 29.515258 -98.319338 327 1733ft 173kts
14-Aug-20 12:04 29.562614 -98.337394 59 1802ft 222kts
14-Aug-20 12:05 29.531317 -98.290916 150 1755ft 216kts
14-Aug-20 12:06 29.536160 -98.311430 335 1492ft 127kts
14-Aug-20 12:07 29.528515 -98.289004 148 766ft 108kts
14-Aug-20 12:08 29.492543 -98.292882 246 1822ft 205kts
14-Aug-20 12:09 29.532417 -98.335159 332 2020ft 230kts
14-Aug-20 12:11 29.585761 -98.356586 64 1594ft 185kts
14-Aug-20 12:12 29.563655 -98.312184 150 1277ft 154kts
14-Aug-20 12:13 29.532727 -98.291722 150 770ft 96kts
14-Aug-20 12:14 29.496877 -98.275142 214 2100ft 191kts
14-Aug-20 12:15 29.511469 -98.323360 328 1746ft 229kts
14-Aug-20 12:16 29.563009 -98.335086 61 1786ft 194kts
14-Aug-20 12:17 29.530161 -98.290098 151 1877ft 220kts
14-Aug-20 12:18 29.536955 -98.317628 241 2081ft 123kts
14-Aug-20 12:19 29.487923 -98.354117 217 2483ft 237kts
14-Aug-20 12:20 29.507842 -98.330981 9 1896ft 188kts
14-Aug-20 12:21 29.558788 -98.342269 58 1844ft 204kts
14-Aug-20 12:22 29.538357 -98.295393 150 1780ft 223kts
14-Aug-20 12:23 29.537611 -98.309600 338 1244ft 110kts
14-Aug-20 12:24 29.528960 -98.289298 146 765ft 74kts
14-Aug-20 12:25 29.529005 -98.303992 329 1575ft 152kts
14-Aug-20 12:26 29.535694 -98.293743 150 798ft 111kts
14-Aug-20 12:27 29.501339 -98.276550 217 1836ft 175kts
14-Aug-20 12:28 29.515960 -98.321618 329 1862ft 218kts
14-Aug-20 12:28 29.560571 -98.351117 331 1603ft 209kts
14-Aug-20 12:30 29.580207 -98.323657 144 1258ft 172kts
14-Aug-20 12:31 29.548048 -98.301737 150 1028ft 157kts
14-Aug-20 12:32 29.520400 -98.283636 149 1035ft 129kts
14-Aug-20 12:32 29.491528 -98.295741 251 1969ft 218kts
14-Aug-20 12:33 29.533740 -98.333259 327 1777ft 212kts
14-Aug-20 12:34 29.563290 -98.334027 55 1796ft 200kts
14-Aug-20 12:36 29.518888 -98.288560 218 1906ft 211kts
14-Aug-20 12:36 29.530953 -98.327124 245 2453ft 200kts
14-Aug-20 12:38 29.478030 -98.359320 123 1734ft 209kts
14-Aug-20 12:38 29.510724 -98.326243 12 1824ft 221kts
14-Aug-20 12:39 29.561437 -98.337632 58 1813ft 210kts
14-Aug-20 12:40 29.534245 -98.292919 150 1688ft 225kts
14-Aug-20 12:41 29.534778 -98.315320 332 1878ft 124kts
14-Aug-20 12:42 29.539252 -98.295976 152 876ft 116kts
14-Aug-20 12:43 29.510660 -98.279026 179 1831ft 165kts
14-Aug-20 12:44 29.533178 -98.311066 329 1488ft 106kts
14-Aug-20 12:45 29.532964 -98.292011 151 863ft 129kts
14-Aug-20 12:46 29.511224 -98.297034 339 1479ft 173kts
14-Aug-20 12:47 29.546694 -98.315308 28 1439ft 127kts
14-Aug-20 12:48 29.530926 -98.290459 149 765ft 56kts
14-Aug-20 12:49 29.526664 -98.286737 60 765ft 0kts
14-Aug-20 12:50 29.527322 -98.286025 319 765ft 10kts
14-Aug-20 12:51 29.528271 -98.286418 263 765ft 0kts

Navigation Log

Ident Type
Flight plan parsing failed, navigation log unavailable